sensor_id;sensor_type;location;lat;lon;timestamp;temperature;humidity
26342;DHT22;14054;50.108;8.640;2024-02-26T00:01:36;7.10;99.90
26342;DHT22;14054;50.108;8.640;2024-02-26T00:04:01;7.10;99.90
26342;DHT22;14054;50.108;8.640;2024-02-26T00:06:28;7.10;99.90
26342;DHT22;14054;50.108;8.640;2024-02-26T00:08:54;7.10;99.90
26342;DHT22;14054;50.108;8.640;2024-02-26T00:11:19;7.10;99.90
26342;DHT22;14054;50.108;8.640;2024-02-26T00:13:45;7.10;99.90
26342;DHT22;14054;50.108;8.640;2024-02-26T00:16:10;7.10;99.90
26342;DHT22;14054;50.108;8.640;2024-02-26T00:18:36;7.10;99.90
26342;DHT22;14054;50.108;8.640;2024-02-26T00:21:02;7.20;99.90
26342;DHT22;14054;50.108;8.640;2024-02-26T00:23:28;7.10;99.90
26342;DHT22;14054;50.108;8.640;2024-02-26T00:25:53;7.10;99.90
26342;DHT22;14054;50.108;8.640;2024-02-26T00:28:19;7.20;99.90
26342;DHT22;14054;50.108;8.640;2024-02-26T00:30:45;7.10;99.90
26342;DHT22;14054;50.108;8.640;2024-02-26T00:33:11;7.10;99.90
26342;DHT22;14054;50.108;8.640;2024-02-26T00:35:36;7.10;99.90
26342;DHT22;14054;50.108;8.640;2024-02-26T00:38:02;7.10;99.90
26342;DHT22;14054;50.108;8.640;2024-02-26T00:40:28;7.10;99.90
26342;DHT22;14054;50.108;8.640;2024-02-26T00:42:54;7.20;99.90
26342;DHT22;14054;50.108;8.640;2024-02-26T00:45:19;7.10;99.90
26342;DHT22;14054;50.108;8.640;2024-02-26T00:47:45;7.20;99.90
26342;DHT22;14054;50.108;8.640;2024-02-26T00:50:12;7.20;99.90
26342;DHT22;14054;50.108;8.640;2024-02-26T00:52:38;7.30;99.90
26342;DHT22;14054;50.108;8.640;2024-02-26T00:55:04;7.20;99.90
26342;DHT22;14054;50.108;8.640;2024-02-26T00:57:29;7.20;99.90
26342;DHT22;14054;50.108;8.640;2024-02-26T00:59:55;7.30;99.90
26342;DHT22;14054;50.108;8.640;2024-02-26T01:02:22;7.30;99.90
26342;DHT22;14054;50.108;8.640;2024-02-26T01:04:47;7.30;99.90
26342;DHT22;14054;50.108;8.640;2024-02-26T01:07:13;7.20;99.90
26342;DHT22;14054;50.108;8.640;2024-02-26T01:09:38;7.30;99.90
26342;DHT22;14054;50.108;8.640;2024-02-26T01:12:04;7.20;99.90
26342;DHT22;14054;50.108;8.640;2024-02-26T01:14:29;7.20;99.90
26342;DHT22;14054;50.108;8.640;2024-02-26T01:16:55;7.20;99.90
26342;DHT22;14054;50.108;8.640;2024-02-26T01:19:21;7.20;99.90
26342;DHT22;14054;50.108;8.640;2024-02-26T01:21:46;7.20;99.90
26342;DHT22;14054;50.108;8.640;2024-02-26T01:24:12;7.20;99.90
26342;DHT22;14054;50.108;8.640;2024-02-26T01:26:37;7.30;99.90
26342;DHT22;14054;50.108;8.640;2024-02-26T01:29:03;7.30;99.90
26342;DHT22;14054;50.108;8.640;2024-02-26T01:31:28;7.30;99.90
26342;DHT22;14054;50.108;8.640;2024-02-26T01:33:54;7.30;99.90
26342;DHT22;14054;50.108;8.640;2024-02-26T01:36:19;7.40;99.90
26342;DHT22;14054;50.108;8.640;2024-02-26T01:38:46;7.30;99.90
26342;DHT22;14054;50.108;8.640;2024-02-26T01:41:13;7.30;99.90
26342;DHT22;14054;50.108;8.640;2024-02-26T01:43:39;7.30;99.90
26342;DHT22;14054;50.108;8.640;2024-02-26T01:46:05;7.40;99.90
26342;DHT22;14054;50.108;8.640;2024-02-26T01:48:30;7.40;99.90
26342;DHT22;14054;50.108;8.640;2024-02-26T01:50:56;7.40;99.90
26342;DHT22;14054;50.108;8.640;2024-02-26T01:53:22;7.40;99.90
26342;DHT22;14054;50.108;8.640;2024-02-26T01:55:48;7.40;99.90
26342;DHT22;14054;50.108;8.640;2024-02-26T01:58:14;7.40;99.90
26342;DHT22;14054;50.108;8.640;2024-02-26T02:00:39;7.40;99.90
26342;DHT22;14054;50.108;8.640;2024-02-26T02:03:05;7.40;99.90
26342;DHT22;14054;50.108;8.640;2024-02-26T02:05:31;7.40;99.90
26342;DHT22;14054;50.108;8.640;2024-02-26T02:07:57;7.40;99.90
26342;DHT22;14054;50.108;8.640;2024-02-26T02:10:24;7.40;99.90
26342;DHT22;14054;50.108;8.640;2024-02-26T02:12:51;7.40;99.90
26342;DHT22;14054;50.108;8.640;2024-02-26T02:15:17;7.40;99.90
26342;DHT22;14054;50.108;8.640;2024-02-26T02:17:43;7.40;99.90
26342;DHT22;14054;50.108;8.640;2024-02-26T02:20:10;7.40;99.90
26342;DHT22;14054;50.108;8.640;2024-02-26T02:22:40;7.50;99.90
26342;DHT22;14054;50.108;8.640;2024-02-26T02:25:05;7.40;99.90
26342;DHT22;14054;50.108;8.640;2024-02-26T02:27:31;7.40;99.90
26342;DHT22;14054;50.108;8.640;2024-02-26T02:29:57;7.40;99.90
26342;DHT22;14054;50.108;8.640;2024-02-26T02:32:23;7.30;99.90
26342;DHT22;14054;50.108;8.640;2024-02-26T02:34:49;7.30;99.90
26342;DHT22;14054;50.108;8.640;2024-02-26T02:37:15;7.30;99.90
26342;DHT22;14054;50.108;8.640;2024-02-26T02:39:40;7.30;99.90
26342;DHT22;14054;50.108;8.640;2024-02-26T02:42:08;7.20;99.90
26342;DHT22;14054;50.108;8.640;2024-02-26T02:44:34;7.20;99.90
26342;DHT22;14054;50.108;8.640;2024-02-26T02:46:59;7.20;99.90
26342;DHT22;14054;50.108;8.640;2024-02-26T02:49:25;7.20;99.90
26342;DHT22;14054;50.108;8.640;2024-02-26T02:51:50;7.20;99.90
26342;DHT22;14054;50.108;8.640;2024-02-26T02:54:16;7.20;99.90
26342;DHT22;14054;50.108;8.640;2024-02-26T02:56:41;7.20;99.90
26342;DHT22;14054;50.108;8.640;2024-02-26T02:59:07;7.20;99.90
26342;DHT22;14054;50.108;8.640;2024-02-26T03:01:32;7.20;99.90
26342;DHT22;14054;50.108;8.640;2024-02-26T03:03:58;7.20;99.90
26342;DHT22;14054;50.108;8.640;2024-02-26T03:06:23;7.20;99.90
26342;DHT22;14054;50.108;8.640;2024-02-26T03:08:51;7.20;99.90
26342;DHT22;14054;50.108;8.640;2024-02-26T03:11:17;7.10;99.90
26342;DHT22;14054;50.108;8.640;2024-02-26T03:13:43;7.10;99.90
26342;DHT22;14054;50.108;8.640;2024-02-26T03:16:08;7.10;99.90
26342;DHT22;14054;50.108;8.640;2024-02-26T03:18:34;7.20;99.90
26342;DHT22;14054;50.108;8.640;2024-02-26T03:20:59;7.10;99.90
26342;DHT22;14054;50.108;8.640;2024-02-26T03:23:25;7.10;99.90
26342;DHT22;14054;50.108;8.640;2024-02-26T03:25:50;7.10;99.90
26342;DHT22;14054;50.108;8.640;2024-02-26T03:28:16;7.10;99.90
26342;DHT22;14054;50.108;8.640;2024-02-26T03:30:41;7.10;99.90
26342;DHT22;14054;50.108;8.640;2024-02-26T03:33:07;7.10;99.90
26342;DHT22;14054;50.108;8.640;2024-02-26T03:35:33;7.10;99.90
26342;DHT22;14054;50.108;8.640;2024-02-26T03:37:58;7.10;99.90
26342;DHT22;14054;50.108;8.640;2024-02-26T03:40:23;7.10;99.90
26342;DHT22;14054;50.108;8.640;2024-02-26T03:42:49;7.10;99.90
26342;DHT22;14054;50.108;8.640;2024-02-26T03:45:15;7.10;99.90
26342;DHT22;14054;50.108;8.640;2024-02-26T03:47:41;7.10;99.90
26342;DHT22;14054;50.108;8.640;2024-02-26T03:50:07;7.10;99.90
26342;DHT22;14054;50.108;8.640;2024-02-26T03:52:33;7.10;99.90
26342;DHT22;14054;50.108;8.640;2024-02-26T03:54:59;7.10;99.90
26342;DHT22;14054;50.108;8.640;2024-02-26T03:57:25;7.10;99.90
26342;DHT22;14054;50.108;8.640;2024-02-26T03:59:50;7.10;99.90
26342;DHT22;14054;50.108;8.640;2024-02-26T04:02:16;7.20;99.90
26342;DHT22;14054;50.108;8.640;2024-02-26T04:04:41;7.20;99.90
26342;DHT22;14054;50.108;8.640;2024-02-26T04:07:07;7.20;99.90
26342;DHT22;14054;50.108;8.640;2024-02-26T04:09:33;7.20;99.90
26342;DHT22;14054;50.108;8.640;2024-02-26T04:11:59;7.20;99.90
26342;DHT22;14054;50.108;8.640;2024-02-26T04:14:24;7.20;99.90
26342;DHT22;14054;50.108;8.640;2024-02-26T04:16:50;7.20;99.90
26342;DHT22;14054;50.108;8.640;2024-02-26T04:19:17;7.20;99.90
26342;DHT22;14054;50.108;8.640;2024-02-26T04:21:43;7.20;99.90
26342;DHT22;14054;50.108;8.640;2024-02-26T04:24:08;7.20;99.90
26342;DHT22;14054;50.108;8.640;2024-02-26T04:26:34;7.20;99.90
26342;DHT22;14054;50.108;8.640;2024-02-26T04:29:00;7.20;99.90
26342;DHT22;14054;50.108;8.640;2024-02-26T04:31:26;7.20;99.90
26342;DHT22;14054;50.108;8.640;2024-02-26T04:33:52;7.30;99.90
26342;DHT22;14054;50.108;8.640;2024-02-26T04:36:17;7.30;99.90
26342;DHT22;14054;50.108;8.640;2024-02-26T04:38:45;7.30;99.90
26342;DHT22;14054;50.108;8.640;2024-02-26T04:41:11;7.20;99.90
26342;DHT22;14054;50.108;8.640;2024-02-26T04:43:38;7.20;99.90
26342;DHT22;14054;50.108;8.640;2024-02-26T04:46:07;7.20;99.90
26342;DHT22;14054;50.108;8.640;2024-02-26T04:48:34;7.20;99.90
26342;DHT22;14054;50.108;8.640;2024-02-26T04:50:59;7.20;99.90
26342;DHT22;14054;50.108;8.640;2024-02-26T04:53:25;7.20;99.90
26342;DHT22;14054;50.108;8.640;2024-02-26T04:55:51;7.20;99.90
26342;DHT22;14054;50.108;8.640;2024-02-26T04:58:17;7.20;99.90
26342;DHT22;14054;50.108;8.640;2024-02-26T05:00:42;7.10;99.90
26342;DHT22;14054;50.108;8.640;2024-02-26T05:03:08;7.10;99.90
26342;DHT22;14054;50.108;8.640;2024-02-26T05:05:38;7.10;99.90
26342;DHT22;14054;50.108;8.640;2024-02-26T05:08:04;7.10;99.90
26342;DHT22;14054;50.108;8.640;2024-02-26T05:10:29;7.10;99.90
26342;DHT22;14054;50.108;8.640;2024-02-26T05:12:55;7.00;99.90
26342;DHT22;14054;50.108;8.640;2024-02-26T05:15:20;7.00;99.90
26342;DHT22;14054;50.108;8.640;2024-02-26T05:17:46;7.00;99.90
26342;DHT22;14054;50.108;8.640;2024-02-26T05:20:11;7.00;99.90
26342;DHT22;14054;50.108;8.640;2024-02-26T05:22:37;7.00;99.90
26342;DHT22;14054;50.108;8.640;2024-02-26T05:25:03;6.90;99.90
26342;DHT22;14054;50.108;8.640;2024-02-26T05:27:28;6.90;99.90
26342;DHT22;14054;50.108;8.640;2024-02-26T05:29:54;6.90;99.90
26342;DHT22;14054;50.108;8.640;2024-02-26T05:32:19;6.90;99.90
26342;DHT22;14054;50.108;8.640;2024-02-26T05:34:45;6.90;99.90
26342;DHT22;14054;50.108;8.640;2024-02-26T05:37:10;6.90;99.90
26342;DHT22;14054;50.108;8.640;2024-02-26T05:39:36;6.90;99.90
26342;DHT22;14054;50.108;8.640;2024-02-26T05:42:02;6.90;99.90
26342;DHT22;14054;50.108;8.640;2024-02-26T05:44:28;6.90;99.90
26342;DHT22;14054;50.108;8.640;2024-02-26T05:46:54;6.90;99.90
26342;DHT22;14054;50.108;8.640;2024-02-26T05:49:19;6.90;99.90
26342;DHT22;14054;50.108;8.640;2024-02-26T05:51:45;6.90;99.90
26342;DHT22;14054;50.108;8.640;2024-02-26T05:54:10;6.90;99.90
26342;DHT22;14054;50.108;8.640;2024-02-26T05:56:36;6.80;99.90
26342;DHT22;14054;50.108;8.640;2024-02-26T05:59:02;6.80;99.90
26342;DHT22;14054;50.108;8.640;2024-02-26T06:01:27;6.70;99.90
26342;DHT22;14054;50.108;8.640;2024-02-26T06:03:53;6.80;99.90
26342;DHT22;14054;50.108;8.640;2024-02-26T06:06:19;6.70;99.90
26342;DHT22;14054;50.108;8.640;2024-02-26T06:08:44;6.70;99.90
26342;DHT22;14054;50.108;8.640;2024-02-26T06:11:10;6.60;99.90
26342;DHT22;14054;50.108;8.640;2024-02-26T06:13:35;6.60;99.90
26342;DHT22;14054;50.108;8.640;2024-02-26T06:16:01;6.70;99.90
26342;DHT22;14054;50.108;8.640;2024-02-26T06:18:27;6.60;99.90
26342;DHT22;14054;50.108;8.640;2024-02-26T06:20:53;6.60;99.90
26342;DHT22;14054;50.108;8.640;2024-02-26T06:23:18;6.60;99.90
26342;DHT22;14054;50.108;8.640;2024-02-26T06:25:44;6.60;99.90
26342;DHT22;14054;50.108;8.640;2024-02-26T06:28:09;6.50;99.90
26342;DHT22;14054;50.108;8.640;2024-02-26T06:30:35;6.60;99.90
26342;DHT22;14054;50.108;8.640;2024-02-26T06:33:01;6.60;99.90
26342;DHT22;14054;50.108;8.640;2024-02-26T06:35:27;6.50;99.90
26342;DHT22;14054;50.108;8.640;2024-02-26T06:37:52;6.50;99.90
26342;DHT22;14054;50.108;8.640;2024-02-26T06:40:19;6.60;99.90
26342;DHT22;14054;50.108;8.640;2024-02-26T06:42:44;6.60;99.90
26342;DHT22;14054;50.108;8.640;2024-02-26T06:45:10;6.60;99.90
26342;DHT22;14054;50.108;8.640;2024-02-26T06:47:36;6.50;99.90
26342;DHT22;14054;50.108;8.640;2024-02-26T06:50:01;6.50;99.90
26342;DHT22;14054;50.108;8.640;2024-02-26T06:52:27;6.50;99.90
26342;DHT22;14054;50.108;8.640;2024-02-26T06:54:52;6.50;99.90
26342;DHT22;14054;50.108;8.640;2024-02-26T06:57:21;6.50;99.90
26342;DHT22;14054;50.108;8.640;2024-02-26T06:59:46;6.50;99.90
26342;DHT22;14054;50.108;8.640;2024-02-26T07:02:15;6.40;99.90
26342;DHT22;14054;50.108;8.640;2024-02-26T07:04:42;6.50;99.90
26342;DHT22;14054;50.108;8.640;2024-02-26T07:07:08;6.50;99.90
26342;DHT22;14054;50.108;8.640;2024-02-26T07:09:33;6.40;99.90
26342;DHT22;14054;50.108;8.640;2024-02-26T07:11:59;6.50;99.90
26342;DHT22;14054;50.108;8.640;2024-02-26T07:14:24;6.50;99.90
26342;DHT22;14054;50.108;8.640;2024-02-26T07:16:50;6.50;99.90
26342;DHT22;14054;50.108;8.640;2024-02-26T07:19:16;6.50;99.90
26342;DHT22;14054;50.108;8.640;2024-02-26T07:21:41;6.50;99.90
26342;DHT22;14054;50.108;8.640;2024-02-26T07:24:07;6.50;99.90
26342;DHT22;14054;50.108;8.640;2024-02-26T07:26:32;6.40;99.90
26342;DHT22;14054;50.108;8.640;2024-02-26T07:28:58;6.50;99.90
26342;DHT22;14054;50.108;8.640;2024-02-26T07:31:24;6.40;99.90
26342;DHT22;14054;50.108;8.640;2024-02-26T07:33:49;6.40;99.90
26342;DHT22;14054;50.108;8.640;2024-02-26T07:36:15;6.40;99.90
26342;DHT22;14054;50.108;8.640;2024-02-26T07:38:40;6.30;99.90
26342;DHT22;14054;50.108;8.640;2024-02-26T07:41:06;6.30;99.90
26342;DHT22;14054;50.108;8.640;2024-02-26T07:43:31;6.30;99.90
26342;DHT22;14054;50.108;8.640;2024-02-26T07:45:57;6.40;99.90
26342;DHT22;14054;50.108;8.640;2024-02-26T07:48:23;6.40;99.90
26342;DHT22;14054;50.108;8.640;2024-02-26T07:50:48;6.50;99.90
26342;DHT22;14054;50.108;8.640;2024-02-26T07:53:14;6.60;99.90
26342;DHT22;14054;50.108;8.640;2024-02-26T07:55:39;6.60;99.90
26342;DHT22;14054;50.108;8.640;2024-02-26T07:58:05;6.70;99.90
26342;DHT22;14054;50.108;8.640;2024-02-26T08:00:30;6.70;99.90
26342;DHT22;14054;50.108;8.640;2024-02-26T08:02:56;6.70;99.90
26342;DHT22;14054;50.108;8.640;2024-02-26T08:05:21;6.80;99.90
26342;DHT22;14054;50.108;8.640;2024-02-26T08:07:47;6.80;99.90
26342;DHT22;14054;50.108;8.640;2024-02-26T08:10:12;6.80;99.90
26342;DHT22;14054;50.108;8.640;2024-02-26T08:12:38;6.80;99.90
26342;DHT22;14054;50.108;8.640;2024-02-26T08:15:04;6.80;99.90
26342;DHT22;14054;50.108;8.640;2024-02-26T08:17:30;6.80;99.90
26342;DHT22;14054;50.108;8.640;2024-02-26T08:19:55;6.80;99.90
26342;DHT22;14054;50.108;8.640;2024-02-26T08:22:22;6.90;99.90
26342;DHT22;14054;50.108;8.640;2024-02-26T08:24:47;7.00;99.90
26342;DHT22;14054;50.108;8.640;2024-02-26T08:27:13;7.00;99.90
26342;DHT22;14054;50.108;8.640;2024-02-26T08:29:38;6.90;99.90
26342;DHT22;14054;50.108;8.640;2024-02-26T08:32:04;7.00;99.90
26342;DHT22;14054;50.108;8.640;2024-02-26T08:34:31;7.10;99.90
26342;DHT22;14054;50.108;8.640;2024-02-26T08:36:56;7.10;99.90
26342;DHT22;14054;50.108;8.640;2024-02-26T08:39:21;7.20;99.90
26342;DHT22;14054;50.108;8.640;2024-02-26T08:41:47;7.20;99.90
26342;DHT22;14054;50.108;8.640;2024-02-26T08:44:12;7.30;99.90
26342;DHT22;14054;50.108;8.640;2024-02-26T08:46:38;7.20;99.90
26342;DHT22;14054;50.108;8.640;2024-02-26T08:49:04;7.30;99.90
26342;DHT22;14054;50.108;8.640;2024-02-26T08:51:29;7.30;99.90
26342;DHT22;14054;50.108;8.640;2024-02-26T08:53:55;7.20;99.90
26342;DHT22;14054;50.108;8.640;2024-02-26T08:56:20;7.20;99.90
26342;DHT22;14054;50.108;8.640;2024-02-26T08:58:47;6.90;99.90
26342;DHT22;14054;50.108;8.640;2024-02-26T09:01:14;6.90;99.90
26342;DHT22;14054;50.108;8.640;2024-02-26T09:03:40;6.90;99.90
26342;DHT22;14054;50.108;8.640;2024-02-26T09:06:05;6.90;99.90
26342;DHT22;14054;50.108;8.640;2024-02-26T09:08:32;6.90;99.90
26342;DHT22;14054;50.108;8.640;2024-02-26T09:10:57;6.90;99.90
26342;DHT22;14054;50.108;8.640;2024-02-26T09:13:23;7.00;99.90
26342;DHT22;14054;50.108;8.640;2024-02-26T09:15:49;7.10;99.90
26342;DHT22;14054;50.108;8.640;2024-02-26T09:18:14;7.10;99.90
26342;DHT22;14054;50.108;8.640;2024-02-26T09:20:40;7.10;99.90
26342;DHT22;14054;50.108;8.640;2024-02-26T09:23:06;7.10;99.90
26342;DHT22;14054;50.108;8.640;2024-02-26T09:25:31;7.10;99.90
26342;DHT22;14054;50.108;8.640;2024-02-26T09:27:59;7.20;99.90
26342;DHT22;14054;50.108;8.640;2024-02-26T09:30:24;7.20;99.90
26342;DHT22;14054;50.108;8.640;2024-02-26T09:32:50;7.30;99.90
26342;DHT22;14054;50.108;8.640;2024-02-26T09:35:15;7.20;99.90
26342;DHT22;14054;50.108;8.640;2024-02-26T09:37:41;7.30;99.90
26342;DHT22;14054;50.108;8.640;2024-02-26T09:40:08;7.50;99.90
26342;DHT22;14054;50.108;8.640;2024-02-26T09:42:37;7.50;99.90
26342;DHT22;14054;50.108;8.640;2024-02-26T09:45:06;7.50;99.90
26342;DHT22;14054;50.108;8.640;2024-02-26T09:47:36;7.60;99.90
26342;DHT22;14054;50.108;8.640;2024-02-26T09:50:02;7.60;99.90
26342;DHT22;14054;50.108;8.640;2024-02-26T09:52:28;7.70;99.90
26342;DHT22;14054;50.108;8.640;2024-02-26T09:54:56;7.70;99.90
26342;DHT22;14054;50.108;8.640;2024-02-26T09:57:21;7.70;99.90
26342;DHT22;14054;50.108;8.640;2024-02-26T09:59:53;7.70;99.90
26342;DHT22;14054;50.108;8.640;2024-02-26T10:02:22;7.80;99.90
26342;DHT22;14054;50.108;8.640;2024-02-26T10:04:48;7.80;99.90
26342;DHT22;14054;50.108;8.640;2024-02-26T10:07:16;7.90;99.90
26342;DHT22;14054;50.108;8.640;2024-02-26T10:09:42;7.90;99.90
26342;DHT22;14054;50.108;8.640;2024-02-26T10:12:10;7.90;99.90
26342;DHT22;14054;50.108;8.640;2024-02-26T10:14:36;7.80;99.90
26342;DHT22;14054;50.108;8.640;2024-02-26T10:17:02;7.80;99.90
26342;DHT22;14054;50.108;8.640;2024-02-26T10:19:29;8.00;99.90
26342;DHT22;14054;50.108;8.640;2024-02-26T10:21:59;7.90;99.90
26342;DHT22;14054;50.108;8.640;2024-02-26T10:24:26;8.10;99.90
26342;DHT22;14054;50.108;8.640;2024-02-26T10:26:52;8.10;99.90
26342;DHT22;14054;50.108;8.640;2024-02-26T10:29:19;8.10;99.90
26342;DHT22;14054;50.108;8.640;2024-02-26T10:31:45;8.20;99.90
26342;DHT22;14054;50.108;8.640;2024-02-26T10:34:11;8.20;99.90
26342;DHT22;14054;50.108;8.640;2024-02-26T10:36:36;8.20;99.90
26342;DHT22;14054;50.108;8.640;2024-02-26T10:39:04;8.50;99.90
26342;DHT22;14054;50.108;8.640;2024-02-26T10:41:30;8.50;99.90
26342;DHT22;14054;50.108;8.640;2024-02-26T10:43:55;8.50;99.90
26342;DHT22;14054;50.108;8.640;2024-02-26T10:46:21;8.60;99.90
26342;DHT22;14054;50.108;8.640;2024-02-26T10:48:53;8.70;99.90
26342;DHT22;14054;50.108;8.640;2024-02-26T10:51:27;8.80;99.90
26342;DHT22;14054;50.108;8.640;2024-02-26T10:53:56;9.00;99.90
26342;DHT22;14054;50.108;8.640;2024-02-26T10:56:28;9.30;99.90
26342;DHT22;14054;50.108;8.640;2024-02-26T10:58:55;9.40;99.90
26342;DHT22;14054;50.108;8.640;2024-02-26T11:01:21;9.40;99.90
26342;DHT22;14054;50.108;8.640;2024-02-26T11:03:51;9.70;99.90
26342;DHT22;14054;50.108;8.640;2024-02-26T11:06:18;9.60;99.90
26342;DHT22;14054;50.108;8.640;2024-02-26T11:08:48;9.70;99.90
26342;DHT22;14054;50.108;8.640;2024-02-26T11:11:15;10.30;99.90
26342;DHT22;14054;50.108;8.640;2024-02-26T11:13:42;10.40;99.90
26342;DHT22;14054;50.108;8.640;2024-02-26T11:16:11;10.00;99.90
26342;DHT22;14054;50.108;8.640;2024-02-26T11:18:38;10.30;99.90
26342;DHT22;14054;50.108;8.640;2024-02-26T11:21:05;10.40;99.90
26342;DHT22;14054;50.108;8.640;2024-02-26T11:23:33;10.40;99.90
26342;DHT22;14054;50.108;8.640;2024-02-26T11:26:02;10.40;99.90
26342;DHT22;14054;50.108;8.640;2024-02-26T11:28:29;10.40;99.90
26342;DHT22;14054;50.108;8.640;2024-02-26T11:30:55;10.40;99.90
26342;DHT22;14054;50.108;8.640;2024-02-26T11:33:20;10.40;99.90
26342;DHT22;14054;50.108;8.640;2024-02-26T11:35:46;10.60;99.90
26342;DHT22;14054;50.108;8.640;2024-02-26T11:38:20;10.40;99.90
26342;DHT22;14054;50.108;8.640;2024-02-26T11:40:50;10.40;99.90
26342;DHT22;14054;50.108;8.640;2024-02-26T11:43:15;10.20;99.90
26342;DHT22;14054;50.108;8.640;2024-02-26T11:48:20;10.30;99.90
26342;DHT22;14054;50.108;8.640;2024-02-26T11:50:53;10.20;99.90
26342;DHT22;14054;50.108;8.640;2024-02-26T11:53:30;10.40;99.90
26342;DHT22;14054;50.108;8.640;2024-02-26T11:58:45;10.20;99.90
26342;DHT22;14054;50.108;8.640;2024-02-26T12:04:05;9.90;99.90
26342;DHT22;14054;50.108;8.640;2024-02-26T12:06:40;9.90;99.90
26342;DHT22;14054;50.108;8.640;2024-02-26T12:09:06;10.10;99.90
26342;DHT22;14054;50.108;8.640;2024-02-26T12:11:32;10.40;99.90
26342;DHT22;14054;50.108;8.640;2024-02-26T12:13:58;10.60;99.90
26342;DHT22;14054;50.108;8.640;2024-02-26T12:16:39;10.90;99.90
26342;DHT22;14054;50.108;8.640;2024-02-26T12:19:09;11.90;99.90
26342;DHT22;14054;50.108;8.640;2024-02-26T12:21:36;11.60;99.90
26342;DHT22;14054;50.108;8.640;2024-02-26T12:24:14;12.60;99.90
26342;DHT22;14054;50.108;8.640;2024-02-26T12:26:43;13.00;99.90
26342;DHT22;14054;50.108;8.640;2024-02-26T12:29:09;13.60;99.90
26342;DHT22;14054;50.108;8.640;2024-02-26T12:31:35;12.70;99.90
26342;DHT22;14054;50.108;8.640;2024-02-26T12:34:05;13.90;99.90
26342;DHT22;14054;50.108;8.640;2024-02-26T12:36:30;13.10;99.90
26342;DHT22;14054;50.108;8.640;2024-02-26T12:38:56;13.90;99.90
26342;DHT22;14054;50.108;8.640;2024-02-26T12:41:22;13.40;99.90
26342;DHT22;14054;50.108;8.640;2024-02-26T12:43:48;13.10;99.90
26342;DHT22;14054;50.108;8.640;2024-02-26T12:46:14;12.90;99.90
26342;DHT22;14054;50.108;8.640;2024-02-26T12:48:43;12.20;99.90
26342;DHT22;14054;50.108;8.640;2024-02-26T12:51:09;11.40;99.90
26342;DHT22;14054;50.108;8.640;2024-02-26T12:53:35;11.30;99.90
26342;DHT22;14054;50.108;8.640;2024-02-26T12:56:02;11.50;99.90
26342;DHT22;14054;50.108;8.640;2024-02-26T12:58:29;11.50;99.90
26342;DHT22;14054;50.108;8.640;2024-02-26T13:00:55;11.20;99.90
26342;DHT22;14054;50.108;8.640;2024-02-26T13:03:22;11.60;99.90
26342;DHT22;14054;50.108;8.640;2024-02-26T13:05:48;11.40;99.90
26342;DHT22;14054;50.108;8.640;2024-02-26T13:08:18;11.10;99.90
26342;DHT22;14054;50.108;8.640;2024-02-26T13:10:48;11.10;99.90
26342;DHT22;14054;50.108;8.640;2024-02-26T13:13:17;10.90;99.90
26342;DHT22;14054;50.108;8.640;2024-02-26T13:15:44;11.10;99.90
26342;DHT22;14054;50.108;8.640;2024-02-26T13:18:15;11.50;99.90
26342;DHT22;14054;50.108;8.640;2024-02-26T13:20:42;11.30;99.90
26342;DHT22;14054;50.108;8.640;2024-02-26T13:23:11;11.50;99.90
26342;DHT22;14054;50.108;8.640;2024-02-26T13:25:37;11.20;99.90
26342;DHT22;14054;50.108;8.640;2024-02-26T13:28:15;11.20;99.90
26342;DHT22;14054;50.108;8.640;2024-02-26T13:30:51;11.00;99.90
26342;DHT22;14054;50.108;8.640;2024-02-26T13:33:17;11.00;99.90
26342;DHT22;14054;50.108;8.640;2024-02-26T13:35:42;11.10;99.90
26342;DHT22;14054;50.108;8.640;2024-02-26T13:38:10;10.90;99.90
26342;DHT22;14054;50.108;8.640;2024-02-26T13:40:36;10.90;99.90
26342;DHT22;14054;50.108;8.640;2024-02-26T13:43:01;11.50;99.90
26342;DHT22;14054;50.108;8.640;2024-02-26T13:45:27;11.90;99.90
26342;DHT22;14054;50.108;8.640;2024-02-26T13:47:53;12.50;99.90
26342;DHT22;14054;50.108;8.640;2024-02-26T13:50:18;13.10;99.90
26342;DHT22;14054;50.108;8.640;2024-02-26T13:52:47;13.10;99.90
26342;DHT22;14054;50.108;8.640;2024-02-26T13:55:13;12.80;99.90
26342;DHT22;14054;50.108;8.640;2024-02-26T13:57:39;12.80;99.90
26342;DHT22;14054;50.108;8.640;2024-02-26T14:00:07;12.10;99.90
26342;DHT22;14054;50.108;8.640;2024-02-26T14:02:33;11.80;99.90
26342;DHT22;14054;50.108;8.640;2024-02-26T14:05:02;11.60;99.90
26342;DHT22;14054;50.108;8.640;2024-02-26T14:07:29;11.40;99.90
26342;DHT22;14054;50.108;8.640;2024-02-26T14:09:55;11.70;99.90
26342;DHT22;14054;50.108;8.640;2024-02-26T14:12:20;11.80;99.90
26342;DHT22;14054;50.108;8.640;2024-02-26T14:14:46;12.10;99.90
26342;DHT22;14054;50.108;8.640;2024-02-26T14:17:14;12.00;99.90
26342;DHT22;14054;50.108;8.640;2024-02-26T14:19:41;11.80;99.90
26342;DHT22;14054;50.108;8.640;2024-02-26T14:22:11;11.50;99.90
26342;DHT22;14054;50.108;8.640;2024-02-26T14:24:36;11.30;99.90
26342;DHT22;14054;50.108;8.640;2024-02-26T14:27:02;11.60;99.90
26342;DHT22;14054;50.108;8.640;2024-02-26T14:29:28;11.40;99.90
26342;DHT22;14054;50.108;8.640;2024-02-26T14:31:53;11.70;99.90
26342;DHT22;14054;50.108;8.640;2024-02-26T14:34:21;11.60;99.90
26342;DHT22;14054;50.108;8.640;2024-02-26T14:36:47;11.20;99.90
26342;DHT22;14054;50.108;8.640;2024-02-26T14:39:12;11.30;99.90
26342;DHT22;14054;50.108;8.640;2024-02-26T14:41:39;11.40;99.90
26342;DHT22;14054;50.108;8.640;2024-02-26T14:44:04;11.40;99.90
26342;DHT22;14054;50.108;8.640;2024-02-26T14:46:30;11.30;99.90
26342;DHT22;14054;50.108;8.640;2024-02-26T14:48:55;11.60;99.90
26342;DHT22;14054;50.108;8.640;2024-02-26T14:51:24;11.50;99.90
26342;DHT22;14054;50.108;8.640;2024-02-26T14:53:50;11.60;99.90
26342;DHT22;14054;50.108;8.640;2024-02-26T14:56:15;11.60;99.90
26342;DHT22;14054;50.108;8.640;2024-02-26T14:58:41;11.70;99.90
26342;DHT22;14054;50.108;8.640;2024-02-26T15:01:06;11.60;99.90
26342;DHT22;14054;50.108;8.640;2024-02-26T15:03:32;11.50;99.90
26342;DHT22;14054;50.108;8.640;2024-02-26T15:05:58;11.10;99.90
26342;DHT22;14054;50.108;8.640;2024-02-26T15:08:23;11.20;99.90
26342;DHT22;14054;50.108;8.640;2024-02-26T15:10:49;11.10;99.90
26342;DHT22;14054;50.108;8.640;2024-02-26T15:13:15;11.20;99.90
26342;DHT22;14054;50.108;8.640;2024-02-26T15:15:41;11.20;99.90
26342;DHT22;14054;50.108;8.640;2024-02-26T15:18:07;11.30;99.90
26342;DHT22;14054;50.108;8.640;2024-02-26T15:20:33;11.50;99.90
26342;DHT22;14054;50.108;8.640;2024-02-26T15:22:59;11.70;99.90
26342;DHT22;14054;50.108;8.640;2024-02-26T15:25:24;11.40;99.90
26342;DHT22;14054;50.108;8.640;2024-02-26T15:27:50;11.40;99.90
26342;DHT22;14054;50.108;8.640;2024-02-26T15:30:15;11.40;99.90
26342;DHT22;14054;50.108;8.640;2024-02-26T15:32:41;11.30;99.90
26342;DHT22;14054;50.108;8.640;2024-02-26T15:35:09;11.30;99.90
26342;DHT22;14054;50.108;8.640;2024-02-26T15:37:35;11.20;99.90
26342;DHT22;14054;50.108;8.640;2024-02-26T15:40:01;11.00;99.90
26342;DHT22;14054;50.108;8.640;2024-02-26T15:42:26;10.90;99.90
26342;DHT22;14054;50.108;8.640;2024-02-26T15:44:52;11.10;99.90